Abadi — V8V2002 — position and weather

sailwx.info

Track history (hours):
 
Tides and Currents Weather Stations Pressure Air Temp Water Temp Dewpoint Dewpoint Depression Visibility Wind Speed Wind Dir Waves Ship Positions

Abadi

Last reported at 2018-Jun-14 03:30 UTC. Time now 2018-Jun-18 03:46 UTC.
Position N 22°06' E 119°59'.

Type: Ship (hazmat cat A). MMSI: 508011000.

Date/timePositionNaut miles runAvg speedWind from/ knotsBaromVisibWave heightAir tempDewpointWater temp
2018-Jun-14 03:30N 22°06' E 119°59'714.4
2018-Jun-14 03:00N 22°13' E 119°59'814.8
2018-Jun-14 02:28N 22°21' E 119°59'715.0
2018-Jun-14 02:01N 22°28' E 119°60'714.8
2018-Jun-14 01:30N 22°35' E 120°00'713.4
2018-Jun-14 01:00N 22°42' E 120°01'612.2
2018-Jun-14 00:30N 22°47' E 120°05'6 0.2
2018-Jun-12 23:29N 22°50' E 120°10'2 5.0
2018-Jun-12 23:00N 22°50' E 120°07'4 8.6
2018-Jun-12 22:30N 22°50' E 120°03'4 7.3
2018-Jun-12 21:59N 22°47' E 120°00'4 9.2
2018-Jun-12 21:30N 22°43' E 119°59'510.6
2018-Jun-12 21:00N 22°38' E 119°58'611.4
2018-Jun-12 20:28N 22°31' E 119°58'714.1
2018-Jun-12 19:59N 22°25' E 119°57'714.2
2018-Jun-12 19:30N 22°18' E 119°55'714.4
2018-Jun-12 19:01N 22°11' E 119°55'49 3.9
2018-Jun-12 06:33N 21°57' E 119°05'116.5
2018-Jun-12 06:30N 21°57' E 119°06'  
Track history (hours):
 
Tides and Currents Weather Stations Pressure Air Temp Water Temp Dewpoint Dewpoint Depression Visibility Wind Speed Wind Dir Waves Ship Positions

Abadi

Last reported at 2018-Jun-14 03:30 UTC. Time now 2018-Jun-18 03:46 UTC.
Position N 22°06' E 119°59'.

Type: Ship (hazmat cat A). MMSI: 508011000.

Date/timePositionNaut miles runAvg speedWind from/ knotsBaromVisibWave heightAir tempDewpointWater temp
2018-Jun-14 03:30N 22°06' E 119°59'714.4
2018-Jun-14 03:00N 22°13' E 119°59'814.8
2018-Jun-14 02:28N 22°21' E 119°59'715.0
2018-Jun-14 02:01N 22°28' E 119°60'714.8
2018-Jun-14 01:30N 22°35' E 120°00'713.4
2018-Jun-14 01:00N 22°42' E 120°01'612.2
2018-Jun-14 00:30N 22°47' E 120°05'6 0.2
2018-Jun-12 23:29N 22°50' E 120°10'2 5.0
2018-Jun-12 23:00N 22°50' E 120°07'4 8.6
2018-Jun-12 22:30N 22°50' E 120°03'4 7.3
2018-Jun-12 21:59N 22°47' E 120°00'4 9.2
2018-Jun-12 21:30N 22°43' E 119°59'510.6
2018-Jun-12 21:00N 22°38' E 119°58'611.4
2018-Jun-12 20:28N 22°31' E 119°58'714.1
2018-Jun-12 19:59N 22°25' E 119°57'714.2
2018-Jun-12 19:30N 22°18' E 119°55'714.4
2018-Jun-12 19:01N 22°11' E 119°55'49 3.9
2018-Jun-12 06:33N 21°57' E 119°05'116.5
2018-Jun-12 06:30N 21°57' E 119°06'  

Dump ship's entire track history